sensor_id;sensor_type;location;lat;lon;timestamp;P1;durP1;ratioP1;P2;durP2;ratioP2
36457;SDS011;22480;50.546;12.292;2023-04-25T00:02:18;15.63;;;10.05;;
36457;SDS011;22480;50.546;12.292;2023-04-25T00:04:44;15.90;;;9.52;;
36457;SDS011;22480;50.546;12.292;2023-04-25T00:07:11;14.65;;;8.73;;
36457;SDS011;22480;50.546;12.292;2023-04-25T00:09:37;13.80;;;9.68;;
36457;SDS011;22480;50.546;12.292;2023-04-25T00:12:03;13.93;;;9.25;;
36457;SDS011;22480;50.546;12.292;2023-04-25T00:14:29;14.73;;;9.65;;
36457;SDS011;22480;50.546;12.292;2023-04-25T00:16:55;14.95;;;9.38;;
36457;SDS011;22480;50.546;12.292;2023-04-25T00:19:21;17.73;;;10.10;;
36457;SDS011;22480;50.546;12.292;2023-04-25T00:21:47;13.85;;;9.93;;
36457;SDS011;22480;50.546;12.292;2023-04-25T00:24:13;13.15;;;9.02;;
36457;SDS011;22480;50.546;12.292;2023-04-25T00:26:38;14.93;;;9.55;;
36457;SDS011;22480;50.546;12.292;2023-04-25T00:29:04;13.60;;;10.43;;
36457;SDS011;22480;50.546;12.292;2023-04-25T00:31:30;12.30;;;8.40;;
36457;SDS011;22480;50.546;12.292;2023-04-25T00:33:56;15.73;;;9.80;;
36457;SDS011;22480;50.546;12.292;2023-04-25T00:36:21;13.25;;;9.20;;
36457;SDS011;22480;50.546;12.292;2023-04-25T00:38:47;14.25;;;8.68;;
36457;SDS011;22480;50.546;12.292;2023-04-25T00:41:13;13.10;;;9.20;;
36457;SDS011;22480;50.546;12.292;2023-04-25T00:43:39;14.65;;;8.90;;
36457;SDS011;22480;50.546;12.292;2023-04-25T00:46:05;12.52;;;8.60;;
36457;SDS011;22480;50.546;12.292;2023-04-25T00:48:31;13.88;;;9.65;;
36457;SDS011;22480;50.546;12.292;2023-04-25T00:50:57;12.52;;;9.23;;
36457;SDS011;22480;50.546;12.292;2023-04-25T00:53:25;13.18;;;9.05;;
36457;SDS011;22480;50.546;12.292;2023-04-25T00:55:52;14.05;;;10.20;;
36457;SDS011;22480;50.546;12.292;2023-04-25T00:58:19;17.33;;;10.80;;
36457;SDS011;22480;50.546;12.292;2023-04-25T01:00:46;14.75;;;11.00;;
36457;SDS011;22480;50.546;12.292;2023-04-25T01:03:13;15.15;;;9.52;;
36457;SDS011;22480;50.546;12.292;2023-04-25T01:05:41;12.30;;;8.45;;
36457;SDS011;22480;50.546;12.292;2023-04-25T01:08:08;14.25;;;9.40;;
36457;SDS011;22480;50.546;12.292;2023-04-25T01:10:33;14.73;;;9.30;;
36457;SDS011;22480;50.546;12.292;2023-04-25T01:13:00;13.10;;;10.27;;
36457;SDS011;22480;50.546;12.292;2023-04-25T01:15:26;13.60;;;10.68;;
36457;SDS011;22480;50.546;12.292;2023-04-25T01:17:52;12.90;;;9.40;;
36457;SDS011;22480;50.546;12.292;2023-04-25T01:20:24;11.52;;;9.18;;
36457;SDS011;22480;50.546;12.292;2023-04-25T01:22:50;14.30;;;9.98;;
36457;SDS011;22480;50.546;12.292;2023-04-25T01:25:17;13.23;;;8.85;;
36457;SDS011;22480;50.546;12.292;2023-04-25T01:27:44;13.48;;;9.65;;
36457;SDS011;22480;50.546;12.292;2023-04-25T01:30:11;11.43;;;9.30;;
36457;SDS011;22480;50.546;12.292;2023-04-25T01:32:37;11.80;;;8.43;;
36457;SDS011;22480;50.546;12.292;2023-04-25T01:35:07;13.27;;;9.57;;
36457;SDS011;22480;50.546;12.292;2023-04-25T01:37:43;14.85;;;9.00;;
36457;SDS011;22480;50.546;12.292;2023-04-25T01:40:11;14.88;;;9.25;;
36457;SDS011;22480;50.546;12.292;2023-04-25T01:42:39;14.60;;;10.00;;
36457;SDS011;22480;50.546;12.292;2023-04-25T01:45:08;13.85;;;10.00;;
36457;SDS011;22480;50.546;12.292;2023-04-25T01:47:35;12.10;;;9.32;;
36457;SDS011;22480;50.546;12.292;2023-04-25T01:50:02;12.68;;;9.55;;
36457;SDS011;22480;50.546;12.292;2023-04-25T01:52:30;14.45;;;11.00;;
36457;SDS011;22480;50.546;12.292;2023-04-25T01:54:56;13.52;;;10.35;;
36457;SDS011;22480;50.546;12.292;2023-04-25T01:57:26;14.02;;;10.73;;
36457;SDS011;22480;50.546;12.292;2023-04-25T01:59:58;14.10;;;10.50;;
36457;SDS011;22480;50.546;12.292;2023-04-25T02:02:37;16.15;;;10.23;;
36457;SDS011;22480;50.546;12.292;2023-04-25T02:05:06;18.13;;;10.45;;
36457;SDS011;22480;50.546;12.292;2023-04-25T02:07:35;16.50;;;11.13;;
36457;SDS011;22480;50.546;12.292;2023-04-25T02:10:01;14.25;;;10.32;;
36457;SDS011;22480;50.546;12.292;2023-04-25T02:12:31;16.40;;;10.90;;
36457;SDS011;22480;50.546;12.292;2023-04-25T02:15:23;15.93;;;11.93;;
36457;SDS011;22480;50.546;12.292;2023-04-25T02:17:53;16.00;;;12.27;;
36457;SDS011;22480;50.546;12.292;2023-04-25T02:20:21;16.13;;;10.70;;
36457;SDS011;22480;50.546;12.292;2023-04-25T02:22:48;18.73;;;13.02;;
36457;SDS011;22480;50.546;12.292;2023-04-25T02:25:14;19.65;;;12.63;;
36457;SDS011;22480;50.546;12.292;2023-04-25T02:27:41;16.75;;;11.68;;
36457;SDS011;22480;50.546;12.292;2023-04-25T02:30:08;17.90;;;12.52;;
36457;SDS011;22480;50.546;12.292;2023-04-25T02:32:34;18.13;;;12.75;;
36457;SDS011;22480;50.546;12.292;2023-04-25T02:35:01;18.80;;;12.48;;
36457;SDS011;22480;50.546;12.292;2023-04-25T02:37:33;18.10;;;12.57;;
36457;SDS011;22480;50.546;12.292;2023-04-25T02:40:00;16.30;;;12.27;;
36457;SDS011;22480;50.546;12.292;2023-04-25T02:42:26;17.70;;;13.07;;
36457;SDS011;22480;50.546;12.292;2023-04-25T02:44:52;18.65;;;12.25;;
36457;SDS011;22480;50.546;12.292;2023-04-25T02:47:19;18.42;;;12.35;;
36457;SDS011;22480;50.546;12.292;2023-04-25T02:49:45;18.50;;;13.77;;
36457;SDS011;22480;50.546;12.292;2023-04-25T02:52:11;18.05;;;13.18;;
36457;SDS011;22480;50.546;12.292;2023-04-25T02:54:37;18.15;;;12.90;;
36457;SDS011;22480;50.546;12.292;2023-04-25T02:57:04;19.20;;;12.73;;
36457;SDS011;22480;50.546;12.292;2023-04-25T02:59:34;20.08;;;13.32;;
36457;SDS011;22480;50.546;12.292;2023-04-25T03:02:00;19.75;;;13.57;;
36457;SDS011;22480;50.546;12.292;2023-04-25T03:04:27;21.15;;;14.10;;
36457;SDS011;22480;50.546;12.292;2023-04-25T03:06:53;20.25;;;13.18;;
36457;SDS011;22480;50.546;12.292;2023-04-25T03:09:20;20.05;;;14.18;;
36457;SDS011;22480;50.546;12.292;2023-04-25T03:11:46;20.55;;;13.38;;
36457;SDS011;22480;50.546;12.292;2023-04-25T03:14:12;21.98;;;13.38;;
36457;SDS011;22480;50.546;12.292;2023-04-25T03:16:38;20.80;;;14.40;;
36457;SDS011;22480;50.546;12.292;2023-04-25T03:19:04;24.08;;;15.95;;
36457;SDS011;22480;50.546;12.292;2023-04-25T03:21:32;24.70;;;14.77;;
36457;SDS011;22480;50.546;12.292;2023-04-25T03:23:59;25.63;;;15.48;;
36457;SDS011;22480;50.546;12.292;2023-04-25T03:26:27;22.15;;;15.40;;
36457;SDS011;22480;50.546;12.292;2023-04-25T03:28:53;25.20;;;14.85;;
36457;SDS011;22480;50.546;12.292;2023-04-25T03:31:19;21.70;;;16.25;;
36457;SDS011;22480;50.546;12.292;2023-04-25T03:33:45;23.90;;;16.67;;
36457;SDS011;22480;50.546;12.292;2023-04-25T03:36:11;23.70;;;15.07;;
36457;SDS011;22480;50.546;12.292;2023-04-25T03:38:37;20.85;;;14.23;;
36457;SDS011;22480;50.546;12.292;2023-04-25T03:41:07;23.58;;;14.85;;
36457;SDS011;22480;50.546;12.292;2023-04-25T03:43:53;21.10;;;14.63;;
36457;SDS011;22480;50.546;12.292;2023-04-25T03:46:19;21.45;;;14.27;;
36457;SDS011;22480;50.546;12.292;2023-04-25T03:48:46;20.90;;;14.50;;
36457;SDS011;22480;50.546;12.292;2023-04-25T03:51:18;21.77;;;14.68;;
36457;SDS011;22480;50.546;12.292;2023-04-25T03:53:44;22.50;;;14.23;;
36457;SDS011;22480;50.546;12.292;2023-04-25T03:56:18;26.40;;;15.23;;
36457;SDS011;22480;50.546;12.292;2023-04-25T03:58:48;26.98;;;14.05;;
36457;SDS011;22480;50.546;12.292;2023-04-25T04:01:16;22.35;;;14.20;;
36457;SDS011;22480;50.546;12.292;2023-04-25T04:03:42;19.48;;;13.60;;
36457;SDS011;22480;50.546;12.292;2023-04-25T04:06:08;17.98;;;13.23;;
36457;SDS011;22480;50.546;12.292;2023-04-25T04:08:38;21.25;;;14.40;;
36457;SDS011;22480;50.546;12.292;2023-04-25T04:11:04;21.50;;;14.30;;
36457;SDS011;22480;50.546;12.292;2023-04-25T04:13:31;21.58;;;13.40;;
36457;SDS011;22480;50.546;12.292;2023-04-25T04:15:57;20.77;;;13.77;;
36457;SDS011;22480;50.546;12.292;2023-04-25T04:18:23;18.52;;;13.30;;
36457;SDS011;22480;50.546;12.292;2023-04-25T04:20:49;19.10;;;13.40;;
36457;SDS011;22480;50.546;12.292;2023-04-25T04:23:15;20.35;;;14.13;;
36457;SDS011;22480;50.546;12.292;2023-04-25T04:25:41;19.92;;;14.40;;
36457;SDS011;22480;50.546;12.292;2023-04-25T04:28:30;20.80;;;13.52;;
36457;SDS011;22480;50.546;12.292;2023-04-25T04:31:19;21.30;;;14.32;;
36457;SDS011;22480;50.546;12.292;2023-04-25T04:33:47;20.02;;;14.07;;
36457;SDS011;22480;50.546;12.292;2023-04-25T04:36:14;19.13;;;13.73;;
36457;SDS011;22480;50.546;12.292;2023-04-25T04:38:40;19.45;;;13.48;;
36457;SDS011;22480;50.546;12.292;2023-04-25T04:41:11;21.63;;;13.77;;
36457;SDS011;22480;50.546;12.292;2023-04-25T04:43:47;22.45;;;15.43;;
36457;SDS011;22480;50.546;12.292;2023-04-25T04:46:51;19.55;;;13.70;;
36457;SDS011;22480;50.546;12.292;2023-04-25T04:49:29;20.83;;;14.57;;
36457;SDS011;22480;50.546;12.292;2023-04-25T04:52:17;25.33;;;15.77;;
36457;SDS011;22480;50.546;12.292;2023-04-25T04:54:59;26.45;;;14.60;;
36457;SDS011;22480;50.546;12.292;2023-04-25T04:57:50;21.42;;;14.38;;
36457;SDS011;22480;50.546;12.292;2023-04-25T05:00:34;19.67;;;14.63;;
36457;SDS011;22480;50.546;12.292;2023-04-25T05:03:20;21.25;;;14.38;;
36457;SDS011;22480;50.546;12.292;2023-04-25T05:06:04;24.17;;;16.38;;
36457;SDS011;22480;50.546;12.292;2023-04-25T05:08:50;19.20;;;13.40;;
36457;SDS011;22480;50.546;12.292;2023-04-25T05:11:35;17.38;;;12.50;;
36457;SDS011;22480;50.546;12.292;2023-04-25T05:14:21;16.40;;;11.70;;
36457;SDS011;22480;50.546;12.292;2023-04-25T05:17:23;15.35;;;11.40;;
36457;SDS011;22480;50.546;12.292;2023-04-25T05:19:54;14.30;;;9.85;;
36457;SDS011;22480;50.546;12.292;2023-04-25T05:22:33;19.13;;;12.25;;
36457;SDS011;22480;50.546;12.292;2023-04-25T05:25:10;19.02;;;11.98;;
36457;SDS011;22480;50.546;12.292;2023-04-25T05:28:02;16.77;;;12.63;;
36457;SDS011;22480;50.546;12.292;2023-04-25T05:30:46;13.18;;;9.60;;
36457;SDS011;22480;50.546;12.292;2023-04-25T05:33:21;12.50;;;9.63;;
36457;SDS011;22480;50.546;12.292;2023-04-25T05:35:46;14.93;;;9.57;;
36457;SDS011;22480;50.546;12.292;2023-04-25T05:38:13;12.57;;;8.50;;
36457;SDS011;22480;50.546;12.292;2023-04-25T05:41:17;15.48;;;8.90;;
36457;SDS011;22480;50.546;12.292;2023-04-25T05:46:28;11.18;;;8.20;;
36457;SDS011;22480;50.546;12.292;2023-04-25T05:49:10;14.57;;;8.25;;
36457;SDS011;22480;50.546;12.292;2023-04-25T05:51:56;12.57;;;7.00;;
36457;SDS011;22480;50.546;12.292;2023-04-25T05:54:30;8.80;;;6.10;;
36457;SDS011;22480;50.546;12.292;2023-04-25T05:56:56;11.73;;;6.03;;
36457;SDS011;22480;50.546;12.292;2023-04-25T05:59:22;9.05;;;6.10;;
36457;SDS011;22480;50.546;12.292;2023-04-25T06:01:48;10.23;;;5.90;;
36457;SDS011;22480;50.546;12.292;2023-04-25T06:04:14;8.15;;;6.43;;
36457;SDS011;22480;50.546;12.292;2023-04-25T06:06:40;11.93;;;6.60;;
36457;SDS011;22480;50.546;12.292;2023-04-25T06:09:06;11.30;;;6.95;;
36457;SDS011;22480;50.546;12.292;2023-04-25T06:11:31;9.60;;;6.88;;
36457;SDS011;22480;50.546;12.292;2023-04-25T06:13:57;12.38;;;7.85;;
36457;SDS011;22480;50.546;12.292;2023-04-25T06:16:23;8.32;;;6.95;;
36457;SDS011;22480;50.546;12.292;2023-04-25T06:18:51;11.50;;;6.95;;
36457;SDS011;22480;50.546;12.292;2023-04-25T06:21:16;13.90;;;8.38;;
36457;SDS011;22480;50.546;12.292;2023-04-25T06:23:42;12.77;;;8.80;;
36457;SDS011;22480;50.546;12.292;2023-04-25T06:26:11;19.10;;;9.52;;
36457;SDS011;22480;50.546;12.292;2023-04-25T06:28:39;14.43;;;8.52;;
36457;SDS011;22480;50.546;12.292;2023-04-25T06:31:05;13.02;;;8.02;;
36457;SDS011;22480;50.546;12.292;2023-04-25T06:33:31;12.23;;;7.82;;
36457;SDS011;22480;50.546;12.292;2023-04-25T06:35:56;10.38;;;7.28;;
36457;SDS011;22480;50.546;12.292;2023-04-25T06:38:25;7.95;;;7.00;;
36457;SDS011;22480;50.546;12.292;2023-04-25T06:40:53;8.57;;;6.10;;
36457;SDS011;22480;50.546;12.292;2023-04-25T06:43:18;10.38;;;7.00;;
36457;SDS011;22480;50.546;12.292;2023-04-25T06:46:04;11.18;;;6.65;;
36457;SDS011;22480;50.546;12.292;2023-04-25T06:48:34;9.35;;;6.22;;
36457;SDS011;22480;50.546;12.292;2023-04-25T06:51:00;7.75;;;6.30;;
36457;SDS011;22480;50.546;12.292;2023-04-25T06:53:26;7.97;;;5.55;;
36457;SDS011;22480;50.546;12.292;2023-04-25T06:56:03;5.82;;;5.10;;
36457;SDS011;22480;50.546;12.292;2023-04-25T06:59:01;18.45;;;5.80;;
36457;SDS011;22480;50.546;12.292;2023-04-25T07:01:35;8.00;;;5.35;;
36457;SDS011;22480;50.546;12.292;2023-04-25T07:04:04;9.10;;;5.40;;
36457;SDS011;22480;50.546;12.292;2023-04-25T07:06:32;6.18;;;4.82;;
36457;SDS011;22480;50.546;12.292;2023-04-25T07:08:58;7.07;;;4.43;;
36457;SDS011;22480;50.546;12.292;2023-04-25T07:11:24;6.80;;;4.32;;
36457;SDS011;22480;50.546;12.292;2023-04-25T07:13:50;4.95;;;4.18;;
36457;SDS011;22480;50.546;12.292;2023-04-25T07:16:16;4.82;;;3.83;;
36457;SDS011;22480;50.546;12.292;2023-04-25T07:18:42;4.65;;;4.15;;
36457;SDS011;22480;50.546;12.292;2023-04-25T07:21:08;6.63;;;4.50;;
36457;SDS011;22480;50.546;12.292;2023-04-25T07:23:35;5.60;;;3.88;;
36457;SDS011;22480;50.546;12.292;2023-04-25T07:26:08;5.55;;;4.00;;
36457;SDS011;22480;50.546;12.292;2023-04-25T07:28:35;7.72;;;4.18;;
36457;SDS011;22480;50.546;12.292;2023-04-25T07:31:01;4.35;;;3.80;;
36457;SDS011;22480;50.546;12.292;2023-04-25T07:33:27;6.68;;;4.00;;
36457;SDS011;22480;50.546;12.292;2023-04-25T07:35:53;7.28;;;3.97;;
36457;SDS011;22480;50.546;12.292;2023-04-25T07:38:19;3.85;;;3.45;;
36457;SDS011;22480;50.546;12.292;2023-04-25T07:40:46;6.38;;;3.65;;
36457;SDS011;22480;50.546;12.292;2023-04-25T07:43:13;5.70;;;4.13;;
36457;SDS011;22480;50.546;12.292;2023-04-25T07:45:52;9.15;;;4.22;;
36457;SDS011;22480;50.546;12.292;2023-04-25T07:48:19;4.80;;;3.92;;
36457;SDS011;22480;50.546;12.292;2023-04-25T07:50:45;4.85;;;3.75;;
36457;SDS011;22480;50.546;12.292;2023-04-25T07:53:11;5.97;;;4.43;;
36457;SDS011;22480;50.546;12.292;2023-04-25T07:55:44;7.57;;;4.93;;
36457;SDS011;22480;50.546;12.292;2023-04-25T07:58:14;8.98;;;4.43;;
36457;SDS011;22480;50.546;12.292;2023-04-25T08:00:42;7.22;;;5.78;;
36457;SDS011;22480;50.546;12.292;2023-04-25T08:03:28;10.35;;;5.47;;
36457;SDS011;22480;50.546;12.292;2023-04-25T08:05:57;10.13;;;5.72;;
36457;SDS011;22480;50.546;12.292;2023-04-25T08:08:25;6.38;;;5.13;;
36457;SDS011;22480;50.546;12.292;2023-04-25T08:10:51;7.82;;;5.25;;
36457;SDS011;22480;50.546;12.292;2023-04-25T08:13:17;8.05;;;5.15;;
36457;SDS011;22480;50.546;12.292;2023-04-25T08:15:43;10.05;;;5.47;;
36457;SDS011;22480;50.546;12.292;2023-04-25T08:18:09;6.07;;;5.18;;
36457;SDS011;22480;50.546;12.292;2023-04-25T08:20:36;8.82;;;5.28;;
36457;SDS011;22480;50.546;12.292;2023-04-25T08:23:04;7.28;;;5.20;;
36457;SDS011;22480;50.546;12.292;2023-04-25T08:25:46;7.47;;;4.28;;
36457;SDS011;22480;50.546;12.292;2023-04-25T08:28:15;6.82;;;5.03;;
36457;SDS011;22480;50.546;12.292;2023-04-25T08:30:41;8.50;;;5.43;;
36457;SDS011;22480;50.546;12.292;2023-04-25T08:33:10;7.38;;;4.90;;
36457;SDS011;22480;50.546;12.292;2023-04-25T08:35:55;8.73;;;5.38;;
36457;SDS011;22480;50.546;12.292;2023-04-25T08:38:21;10.30;;;5.20;;
36457;SDS011;22480;50.546;12.292;2023-04-25T08:40:50;8.70;;;5.68;;
36457;SDS011;22480;50.546;12.292;2023-04-25T08:43:20;9.25;;;5.32;;
36457;SDS011;22480;50.546;12.292;2023-04-25T08:45:46;9.50;;;4.97;;
36457;SDS011;22480;50.546;12.292;2023-04-25T08:48:20;9.57;;;5.03;;
36457;SDS011;22480;50.546;12.292;2023-04-25T08:50:51;7.30;;;4.95;;
36457;SDS011;22480;50.546;12.292;2023-04-25T08:53:21;6.63;;;4.30;;
36457;SDS011;22480;50.546;12.292;2023-04-25T08:55:51;10.93;;;6.03;;
36457;SDS011;22480;50.546;12.292;2023-04-25T08:58:19;6.43;;;3.97;;
36457;SDS011;22480;50.546;12.292;2023-04-25T09:00:46;7.85;;;4.25;;
36457;SDS011;22480;50.546;12.292;2023-04-25T09:03:13;7.57;;;4.78;;
36457;SDS011;22480;50.546;12.292;2023-04-25T09:05:40;10.02;;;4.55;;
36457;SDS011;22480;50.546;12.292;2023-04-25T09:08:07;6.72;;;4.32;;
36457;SDS011;22480;50.546;12.292;2023-04-25T09:10:33;8.52;;;4.05;;
36457;SDS011;22480;50.546;12.292;2023-04-25T09:13:10;6.45;;;4.07;;
36457;SDS011;22480;50.546;12.292;2023-04-25T09:16:03;24.25;;;16.90;;
36457;SDS011;22480;50.546;12.292;2023-04-25T09:18:40;11.40;;;6.50;;
36457;SDS011;22480;50.546;12.292;2023-04-25T09:21:09;8.90;;;4.80;;
36457;SDS011;22480;50.546;12.292;2023-04-25T09:23:46;8.38;;;4.95;;
36457;SDS011;22480;50.546;12.292;2023-04-25T09:26:14;5.13;;;3.63;;
36457;SDS011;22480;50.546;12.292;2023-04-25T09:28:45;6.53;;;3.70;;
36457;SDS011;22480;50.546;12.292;2023-04-25T09:31:23;7.22;;;4.15;;
36457;SDS011;22480;50.546;12.292;2023-04-25T09:33:50;9.27;;;4.70;;
36457;SDS011;22480;50.546;12.292;2023-04-25T09:36:26;4.05;;;2.78;;
36457;SDS011;22480;50.546;12.292;2023-04-25T09:39:12;3.97;;;2.90;;
36457;SDS011;22480;50.546;12.292;2023-04-25T09:41:44;4.03;;;2.67;;
36457;SDS011;22480;50.546;12.292;2023-04-25T09:44:12;8.27;;;4.85;;
36457;SDS011;22480;50.546;12.292;2023-04-25T09:46:39;7.40;;;4.63;;
36457;SDS011;22480;50.546;12.292;2023-04-25T09:49:12;9.10;;;5.90;;
36457;SDS011;22480;50.546;12.292;2023-04-25T09:51:59;30.55;;;20.65;;
36457;SDS011;22480;50.546;12.292;2023-04-25T09:54:41;7.28;;;3.72;;
36457;SDS011;22480;50.546;12.292;2023-04-25T09:57:19;16.88;;;10.55;;
36457;SDS011;22480;50.546;12.292;2023-04-25T09:59:50;14.80;;;9.25;;
36457;SDS011;22480;50.546;12.292;2023-04-25T10:02:21;7.18;;;3.30;;
36457;SDS011;22480;50.546;12.292;2023-04-25T10:04:51;6.50;;;3.38;;
36457;SDS011;22480;50.546;12.292;2023-04-25T10:07:26;4.93;;;3.08;;
36457;SDS011;22480;50.546;12.292;2023-04-25T10:09:59;6.57;;;3.70;;
36457;SDS011;22480;50.546;12.292;2023-04-25T10:12:28;11.35;;;5.07;;
36457;SDS011;22480;50.546;12.292;2023-04-25T10:14:54;6.63;;;4.03;;
36457;SDS011;22480;50.546;12.292;2023-04-25T10:17:20;5.78;;;3.45;;
36457;SDS011;22480;50.546;12.292;2023-04-25T10:19:49;6.43;;;4.03;;
36457;SDS011;22480;50.546;12.292;2023-04-25T10:22:35;5.13;;;3.92;;
36457;SDS011;22480;50.546;12.292;2023-04-25T10:25:04;5.80;;;3.53;;
36457;SDS011;22480;50.546;12.292;2023-04-25T10:27:31;7.65;;;3.72;;
36457;SDS011;22480;50.546;12.292;2023-04-25T10:32:49;7.18;;;4.20;;
36457;SDS011;22480;50.546;12.292;2023-04-25T10:35:16;8.02;;;4.50;;
36457;SDS011;22480;50.546;12.292;2023-04-25T10:38:04;6.20;;;3.65;;
36457;SDS011;22480;50.546;12.292;2023-04-25T10:40:30;6.50;;;4.38;;
36457;SDS011;22480;50.546;12.292;2023-04-25T10:43:32;5.20;;;3.25;;
36457;SDS011;22480;50.546;12.292;2023-04-25T10:46:01;4.15;;;3.20;;
36457;SDS011;22480;50.546;12.292;2023-04-25T10:48:28;3.83;;;2.65;;
36457;SDS011;22480;50.546;12.292;2023-04-25T10:51:58;4.63;;;2.67;;
36457;SDS011;22480;50.546;12.292;2023-04-25T10:53:57;5.15;;;2.65;;
36457;SDS011;22480;50.546;12.292;2023-04-25T10:56:30;3.33;;;2.63;;
36457;SDS011;22480;50.546;12.292;2023-04-25T11:01:46;4.03;;;2.85;;
36457;SDS011;22480;50.546;12.292;2023-04-25T11:04:21;6.75;;;3.08;;
36457;SDS011;22480;50.546;12.292;2023-04-25T11:06:58;5.25;;;2.90;;
36457;SDS011;22480;50.546;12.292;2023-04-25T11:09:24;3.85;;;2.72;;
36457;SDS011;22480;50.546;12.292;2023-04-25T11:11:55;3.38;;;2.78;;
36457;SDS011;22480;50.546;12.292;2023-04-25T11:14:25;7.25;;;3.00;;
36457;SDS011;22480;50.546;12.292;2023-04-25T11:16:55;4.07;;;3.45;;
36457;SDS011;22480;50.546;12.292;2023-04-25T11:19:23;5.88;;;3.17;;
36457;SDS011;22480;50.546;12.292;2023-04-25T11:21:49;7.43;;;3.88;;
36457;SDS011;22480;50.546;12.292;2023-04-25T11:24:18;7.03;;;3.60;;
36457;SDS011;22480;50.546;12.292;2023-04-25T11:26:46;5.28;;;3.00;;
36457;SDS011;22480;50.546;12.292;2023-04-25T11:29:13;6.72;;;4.20;;
36457;SDS011;22480;50.546;12.292;2023-04-25T11:31:42;4.18;;;3.20;;
36457;SDS011;22480;50.546;12.292;2023-04-25T11:34:10;4.93;;;3.33;;
36457;SDS011;22480;50.546;12.292;2023-04-25T11:36:36;10.23;;;7.85;;
36457;SDS011;22480;50.546;12.292;2023-04-25T11:39:04;4.82;;;3.78;;
36457;SDS011;22480;50.546;12.292;2023-04-25T11:41:31;7.97;;;4.93;;
36457;SDS011;22480;50.546;12.292;2023-04-25T11:43:56;4.75;;;3.35;;
36457;SDS011;22480;50.546;12.292;2023-04-25T11:46:22;3.78;;;3.20;;
36457;SDS011;22480;50.546;12.292;2023-04-25T11:48:48;3.83;;;3.15;;
36457;SDS011;22480;50.546;12.292;2023-04-25T11:51:15;4.32;;;3.65;;
36457;SDS011;22480;50.546;12.292;2023-04-25T11:53:41;3.63;;;2.78;;
36457;SDS011;22480;50.546;12.292;2023-04-25T11:56:09;4.20;;;2.83;;
36457;SDS011;22480;50.546;12.292;2023-04-25T12:01:26;3.93;;;2.37;;
36457;SDS011;22480;50.546;12.292;2023-04-25T12:03:57;4.78;;;2.70;;
36457;SDS011;22480;50.546;12.292;2023-04-25T12:06:27;4.70;;;3.03;;
36457;SDS011;22480;50.546;12.292;2023-04-25T12:09:00;3.78;;;3.30;;
36457;SDS011;22480;50.546;12.292;2023-04-25T12:11:32;3.83;;;2.92;;
36457;SDS011;22480;50.546;12.292;2023-04-25T12:14:05;3.97;;;2.85;;
36457;SDS011;22480;50.546;12.292;2023-04-25T12:16:41;4.13;;;2.63;;
36457;SDS011;22480;50.546;12.292;2023-04-25T12:19:08;4.03;;;2.40;;
36457;SDS011;22480;50.546;12.292;2023-04-25T12:21:35;3.45;;;2.35;;
36457;SDS011;22480;50.546;12.292;2023-04-25T12:24:11;4.50;;;2.53;;
36457;SDS011;22480;50.546;12.292;2023-04-25T12:29:23;4.78;;;2.63;;
36457;SDS011;22480;50.546;12.292;2023-04-25T12:31:50;6.65;;;2.80;;
36457;SDS011;22480;50.546;12.292;2023-04-25T12:34:19;3.70;;;2.30;;
36457;SDS011;22480;50.546;12.292;2023-04-25T12:36:47;3.10;;;1.77;;
36457;SDS011;22480;50.546;12.292;2023-04-25T12:39:17;5.75;;;1.95;;
36457;SDS011;22480;50.546;12.292;2023-04-25T12:41:50;2.90;;;1.73;;
36457;SDS011;22480;50.546;12.292;2023-04-25T12:44:18;3.60;;;1.48;;
36457;SDS011;22480;50.546;12.292;2023-04-25T12:46:44;4.05;;;1.50;;
36457;SDS011;22480;50.546;12.292;2023-04-25T12:49:10;5.15;;;2.03;;
36457;SDS011;22480;50.546;12.292;2023-04-25T12:51:36;3.00;;;2.42;;
36457;SDS011;22480;50.546;12.292;2023-04-25T12:54:03;4.15;;;1.50;;
36457;SDS011;22480;50.546;12.292;2023-04-25T12:56:30;3.22;;;1.75;;
36457;SDS011;22480;50.546;12.292;2023-04-25T12:58:56;3.38;;;1.50;;
36457;SDS011;22480;50.546;12.292;2023-04-25T13:01:22;3.53;;;2.45;;
36457;SDS011;22480;50.546;12.292;2023-04-25T13:03:48;2.30;;;1.50;;
36457;SDS011;22480;50.546;12.292;2023-04-25T13:06:15;3.70;;;2.03;;
36457;SDS011;22480;50.546;12.292;2023-04-25T13:08:41;8.48;;;2.75;;
36457;SDS011;22480;50.546;12.292;2023-04-25T13:11:07;3.00;;;1.90;;
36457;SDS011;22480;50.546;12.292;2023-04-25T13:13:33;6.78;;;2.75;;
36457;SDS011;22480;50.546;12.292;2023-04-25T13:16:03;6.07;;;2.15;;
36457;SDS011;22480;50.546;12.292;2023-04-25T13:18:32;6.47;;;2.35;;
36457;SDS011;22480;50.546;12.292;2023-04-25T13:20:58;4.50;;;2.20;;
36457;SDS011;22480;50.546;12.292;2023-04-25T13:23:25;7.00;;;2.42;;
36457;SDS011;22480;50.546;12.292;2023-04-25T13:25:52;4.35;;;2.10;;
36457;SDS011;22480;50.546;12.292;2023-04-25T13:28:19;7.03;;;2.90;;
36457;SDS011;22480;50.546;12.292;2023-04-25T13:30:45;5.43;;;2.58;;
36457;SDS011;22480;50.546;12.292;2023-04-25T13:33:12;4.18;;;2.13;;
36457;SDS011;22480;50.546;12.292;2023-04-25T13:35:37;5.93;;;2.38;;
36457;SDS011;22480;50.546;12.292;2023-04-25T13:38:03;4.93;;;1.92;;
36457;SDS011;22480;50.546;12.292;2023-04-25T13:40:29;4.05;;;2.13;;
36457;SDS011;22480;50.546;12.292;2023-04-25T13:42:55;5.07;;;1.95;;
36457;SDS011;22480;50.546;12.292;2023-04-25T13:45:21;5.05;;;2.28;;
36457;SDS011;22480;50.546;12.292;2023-04-25T13:47:47;6.45;;;2.00;;
36457;SDS011;22480;50.546;12.292;2023-04-25T13:50:13;5.53;;;2.55;;
36457;SDS011;22480;50.546;12.292;2023-04-25T13:52:40;7.00;;;2.10;;
36457;SDS011;22480;50.546;12.292;2023-04-25T13:55:06;4.20;;;1.85;;
36457;SDS011;22480;50.546;12.292;2023-04-25T13:57:33;2.83;;;1.90;;
36457;SDS011;22480;50.546;12.292;2023-04-25T13:59:59;2.83;;;1.88;;
36457;SDS011;22480;50.546;12.292;2023-04-25T14:02:31;6.45;;;2.28;;
36457;SDS011;22480;50.546;12.292;2023-04-25T14:04:57;14.07;;;5.88;;
36457;SDS011;22480;50.546;12.292;2023-04-25T14:07:23;3.67;;;2.30;;
36457;SDS011;22480;50.546;12.292;2023-04-25T14:09:49;6.90;;;2.28;;
36457;SDS011;22480;50.546;12.292;2023-04-25T14:12:15;3.97;;;1.60;;
36457;SDS011;22480;50.546;12.292;2023-04-25T14:14:41;4.80;;;2.13;;
36457;SDS011;22480;50.546;12.292;2023-04-25T14:17:08;4.10;;;1.80;;
36457;SDS011;22480;50.546;12.292;2023-04-25T14:19:34;5.55;;;1.90;;
36457;SDS011;22480;50.546;12.292;2023-04-25T14:21:59;4.47;;;2.33;;
36457;SDS011;22480;50.546;12.292;2023-04-25T14:24:25;3.58;;;1.85;;
36457;SDS011;22480;50.546;12.292;2023-04-25T14:26:51;6.53;;;2.10;;
36457;SDS011;22480;50.546;12.292;2023-04-25T14:29:17;5.57;;;2.10;;
36457;SDS011;22480;50.546;12.292;2023-04-25T14:31:42;5.18;;;1.92;;
36457;SDS011;22480;50.546;12.292;2023-04-25T14:34:08;4.38;;;1.85;;
36457;SDS011;22480;50.546;12.292;2023-04-25T14:36:35;11.52;;;2.42;;
36457;SDS011;22480;50.546;12.292;2023-04-25T14:39:01;7.70;;;2.58;;
36457;SDS011;22480;50.546;12.292;2023-04-25T14:41:27;5.00;;;2.05;;
36457;SDS011;22480;50.546;12.292;2023-04-25T14:43:53;5.38;;;2.28;;
36457;SDS011;22480;50.546;12.292;2023-04-25T14:46:19;8.32;;;2.55;;
36457;SDS011;22480;50.546;12.292;2023-04-25T14:48:45;6.82;;;2.45;;
36457;SDS011;22480;50.546;12.292;2023-04-25T14:51:12;8.65;;;3.42;;
36457;SDS011;22480;50.546;12.292;2023-04-25T14:53:38;6.90;;;2.95;;